Aviation Digital Data Service (ADDS)

Output produced by METARs form (2323 UTC 30 November 2022)
found at http://aviationweather.gov/metar/data/
 
KROW 301737Z 3018/0118 16011KT P6SM BKN200 
     TEMPO 3020/3023 16011G21KT 
     FM010300 17006KT P6SM BKN200